sensor_id;sensor_type;location;lat;lon;timestamp;pressure;altitude;pressure_sealevel;temperature;humidity
12073;BME280;6098;49.004;8.372;2023-04-09T00:13:28;101091.36;;;11.07;65.84
12073;BME280;6098;49.004;8.372;2023-04-09T00:28:19;101078.92;;;10.94;66.70
12073;BME280;6098;49.004;8.372;2023-04-09T00:43:10;101081.34;;;10.72;67.30
12073;BME280;6098;49.004;8.372;2023-04-09T00:58:01;101078.41;;;10.67;67.11
12073;BME280;6098;49.004;8.372;2023-04-09T01:28:12;101074.70;;;10.56;67.38
12073;BME280;6098;49.004;8.372;2023-04-09T01:43:06;101082.77;;;10.52;67.74
12073;BME280;6098;49.004;8.372;2023-04-09T01:57:57;101071.63;;;10.40;67.71
12073;BME280;6098;49.004;8.372;2023-04-09T02:12:49;101088.86;;;10.40;67.73
12073;BME280;6098;49.004;8.372;2023-04-09T02:27:39;101075.82;;;10.31;68.25
12073;BME280;6098;49.004;8.372;2023-04-09T02:42:30;101064.83;;;10.30;68.05
12073;BME280;6098;49.004;8.372;2023-04-09T02:57:22;101072.24;;;10.17;68.71
12073;BME280;6098;49.004;8.372;2023-04-09T03:12:13;101064.83;;;10.14;68.94
12073;BME280;6098;49.004;8.372;2023-04-09T03:27:03;101062.11;;;9.97;69.14
12073;BME280;6098;49.004;8.372;2023-04-09T03:41:54;101061.41;;;9.92;69.10
12073;BME280;6098;49.004;8.372;2023-04-09T03:56:44;101065.28;;;9.77;69.14
12073;BME280;6098;49.004;8.372;2023-04-09T04:11:34;101058.89;;;9.68;69.12
12073;BME280;6098;49.004;8.372;2023-04-09T04:26:25;101074.65;;;9.55;69.05
12073;BME280;6098;49.004;8.372;2023-04-09T04:41:15;101074.29;;;9.33;69.48
12073;BME280;6098;49.004;8.372;2023-04-09T04:56:06;101080.02;;;9.13;70.47
12073;BME280;6098;49.004;8.372;2023-04-09T05:10:56;101086.10;;;8.97;70.88
12073;BME280;6098;49.004;8.372;2023-04-09T05:25:47;101090.90;;;8.79;71.40
12073;BME280;6098;49.004;8.372;2023-04-09T05:40:36;101105.73;;;8.64;72.59
12073;BME280;6098;49.004;8.372;2023-04-09T05:55:26;101101.84;;;8.60;72.77
12073;BME280;6098;49.004;8.372;2023-04-09T06:10:17;101111.61;;;8.56;72.72
12073;BME280;6098;49.004;8.372;2023-04-09T06:25:07;101120.78;;;8.59;72.97
12073;BME280;6098;49.004;8.372;2023-04-09T06:39:59;101119.19;;;8.96;71.99
12073;BME280;6098;49.004;8.372;2023-04-09T06:54:51;101121.70;;;9.42;70.73
12073;BME280;6098;49.004;8.372;2023-04-09T07:09:43;101115.05;;;9.63;70.32
12073;BME280;6098;49.004;8.372;2023-04-09T07:24:34;101117.23;;;9.99;69.50
12073;BME280;6098;49.004;8.372;2023-04-09T07:39:26;101130.47;;;10.53;67.90
12073;BME280;6098;49.004;8.372;2023-04-09T07:54:18;101140.88;;;10.92;66.05
12073;BME280;6098;49.004;8.372;2023-04-09T08:09:09;101140.22;;;11.15;65.77
12073;BME280;6098;49.004;8.372;2023-04-09T08:24:01;101135.92;;;11.55;64.13
12073;BME280;6098;49.004;8.372;2023-04-09T08:38:54;101147.78;;;11.86;61.32
12073;BME280;6098;49.004;8.372;2023-04-09T09:08:42;101149.02;;;12.42;57.77
12073;BME280;6098;49.004;8.372;2023-04-09T09:23:35;101147.34;;;12.89;53.08
12073;BME280;6098;49.004;8.372;2023-04-09T09:38:29;101138.28;;;13.43;50.23
12073;BME280;6098;49.004;8.372;2023-04-09T09:53:22;101132.74;;;13.81;47.78
12073;BME280;6098;49.004;8.372;2023-04-09T10:08:12;101131.63;;;13.76;46.55
12073;BME280;6098;49.004;8.372;2023-04-09T10:23:05;101126.52;;;13.81;48.53
12073;BME280;6098;49.004;8.372;2023-04-09T10:37:58;101111.22;;;14.07;47.54
12073;BME280;6098;49.004;8.372;2023-04-09T10:52:53;101109.36;;;14.09;44.05
12073;BME280;6098;49.004;8.372;2023-04-09T11:07:52;101104.56;;;14.29;40.42
12073;BME280;6098;49.004;8.372;2023-04-09T11:22:43;101087.96;;;14.63;39.96
12073;BME280;6098;49.004;8.372;2023-04-09T11:37:35;101093.77;;;14.62;40.13
12073;BME280;6098;49.004;8.372;2023-04-09T11:52:26;101090.71;;;15.00;39.26
12073;BME280;6098;49.004;8.372;2023-04-09T12:07:17;101094.96;;;14.95;39.61
12073;BME280;6098;49.004;8.372;2023-04-09T12:22:08;101088.15;;;15.07;38.45
12073;BME280;6098;49.004;8.372;2023-04-09T12:37:00;101071.68;;;15.64;37.71
12073;BME280;6098;49.004;8.372;2023-04-09T12:51:52;101060.11;;;15.35;37.23
12073;BME280;6098;49.004;8.372;2023-04-09T13:06:43;101037.31;;;16.09;36.07
12073;BME280;6098;49.004;8.372;2023-04-09T13:21:36;101035.70;;;16.57;34.61
12073;BME280;6098;49.004;8.372;2023-04-09T13:36:29;101011.92;;;17.07;34.46
12073;BME280;6098;49.004;8.372;2023-04-09T13:51:21;101001.27;;;16.99;34.06
12073;BME280;6098;49.004;8.372;2023-04-09T14:06:12;100995.72;;;17.18;34.24
12073;BME280;6098;49.004;8.372;2023-04-09T14:21:05;100977.95;;;17.48;34.24
12073;BME280;6098;49.004;8.372;2023-04-09T14:35:58;100954.41;;;17.90;33.62
12073;BME280;6098;49.004;8.372;2023-04-09T14:50:52;100943.66;;;17.61;32.60
12073;BME280;6098;49.004;8.372;2023-04-09T15:05:44;100930.62;;;18.78;31.99
12073;BME280;6098;49.004;8.372;2023-04-09T15:20:46;100930.69;;;19.97;29.58
12073;BME280;6098;49.004;8.372;2023-04-09T15:35:34;100918.50;;;18.44;30.91
12073;BME280;6098;49.004;8.372;2023-04-09T15:50:17;100917.38;;;17.75;32.49
12073;BME280;6098;49.004;8.372;2023-04-09T16:05:06;100897.73;;;17.29;33.50
12073;BME280;6098;49.004;8.372;2023-04-09T16:19:56;100894.95;;;16.69;33.91
12073;BME280;6098;49.004;8.372;2023-04-09T16:34:47;100913.74;;;16.52;34.87
12073;BME280;6098;49.004;8.372;2023-04-09T16:49:38;100888.06;;;16.24;34.36
12073;BME280;6098;49.004;8.372;2023-04-09T17:04:30;100891.37;;;16.20;35.32
12073;BME280;6098;49.004;8.372;2023-04-09T17:19:21;100900.59;;;16.06;35.83
12073;BME280;6098;49.004;8.372;2023-04-09T17:34:23;100917.17;;;15.88;36.21
12073;BME280;6098;49.004;8.372;2023-04-09T17:49:14;100930.58;;;15.62;36.55
12073;BME280;6098;49.004;8.372;2023-04-09T18:04:05;100938.37;;;15.39;37.36
12073;BME280;6098;49.004;8.372;2023-04-09T18:18:57;100939.74;;;15.12;38.08
12073;BME280;6098;49.004;8.372;2023-04-09T18:33:48;100954.11;;;14.91;39.60
12073;BME280;6098;49.004;8.372;2023-04-09T18:48:39;100963.17;;;14.69;40.05
12073;BME280;6098;49.004;8.372;2023-04-09T19:03:31;100968.23;;;14.46;40.23
12073;BME280;6098;49.004;8.372;2023-04-09T19:18:21;100979.30;;;14.26;41.36
12073;BME280;6098;49.004;8.372;2023-04-09T19:33:13;100977.27;;;14.02;42.01
12073;BME280;6098;49.004;8.372;2023-04-09T19:48:04;100986.61;;;13.81;42.77
12073;BME280;6098;49.004;8.372;2023-04-09T20:02:54;100975.72;;;13.56;43.25
12073;BME280;6098;49.004;8.372;2023-04-09T20:32:35;101002.34;;;13.12;44.31
12073;BME280;6098;49.004;8.372;2023-04-09T20:47:24;100991.74;;;12.76;45.57
12073;BME280;6098;49.004;8.372;2023-04-09T21:02:16;100976.56;;;12.56;45.75
12073;BME280;6098;49.004;8.372;2023-04-09T21:17:07;100976.83;;;12.37;46.34
12073;BME280;6098;49.004;8.372;2023-04-09T21:31:58;100981.97;;;12.30;47.32
12073;BME280;6098;49.004;8.372;2023-04-09T21:46:49;100979.33;;;12.04;47.96
12073;BME280;6098;49.004;8.372;2023-04-09T22:01:41;100965.25;;;11.89;48.11
12073;BME280;6098;49.004;8.372;2023-04-09T22:16:31;100965.11;;;11.81;48.67
12073;BME280;6098;49.004;8.372;2023-04-09T22:31:22;100971.02;;;11.76;49.04
12073;BME280;6098;49.004;8.372;2023-04-09T22:46:14;100971.50;;;11.61;49.50
12073;BME280;6098;49.004;8.372;2023-04-09T23:01:04;100967.31;;;11.42;50.50
12073;BME280;6098;49.004;8.372;2023-04-09T23:15:56;100964.33;;;11.25;50.97
12073;BME280;6098;49.004;8.372;2023-04-09T23:30:46;100964.27;;;11.13;51.65
12073;BME280;6098;49.004;8.372;2023-04-09T23:45:37;100965.62;;;10.99;52.31
